createdAt,value
2019-03-10T00:00:31.713Z,15.70
2019-03-10T00:03:02.698Z,15.13
2019-03-10T00:05:32.985Z,16.07
2019-03-10T00:08:06.994Z,13.72
2019-03-10T00:10:40.064Z,17.87
2019-03-10T00:13:08.987Z,13.60
2019-03-10T00:15:38.070Z,17.50
2019-03-10T00:18:07.394Z,13.55
2019-03-10T00:20:36.377Z,15.15
2019-03-10T00:23:04.946Z,14.85
2019-03-10T00:25:33.718Z,11.33
2019-03-10T00:28:02.289Z,18.60
2019-03-10T00:30:34.984Z,13.93
2019-03-10T00:33:03.564Z,14.35
2019-03-10T00:35:32.688Z,20.25
2019-03-10T00:38:04.321Z,14.50
2019-03-10T00:40:59.709Z,14.63
2019-03-10T00:44:20.611Z,13.80
2019-03-10T00:47:32.931Z,10.38
2019-03-10T00:51:10.250Z,17.07
2019-03-10T00:53:40.382Z,18.10
2019-03-10T00:56:12.857Z,18.20
2019-03-10T00:58:43.162Z,13.80
2019-03-10T01:01:11.795Z,14.47
2019-03-10T01:03:40.777Z,20.52
2019-03-10T01:06:09.715Z,19.73
2019-03-10T01:08:39.691Z,20.23
2019-03-10T01:11:08.490Z,15.35
2019-03-10T01:13:38.427Z,12.53
2019-03-10T01:16:07.794Z,20.20
2019-03-10T01:18:57.626Z,21.40
2019-03-10T01:21:26.598Z,11.45
2019-03-10T01:23:56.138Z,12.35
2019-03-10T01:26:24.924Z,20.77
2019-03-10T01:28:53.484Z,12.68
2019-03-10T01:31:46.261Z,15.15
2019-03-10T01:34:57.028Z,15.75
2019-03-10T01:37:25.603Z,15.88
2019-03-10T01:39:57.018Z,19.52
2019-03-10T01:42:26.175Z,15.00
2019-03-10T01:44:55.245Z,26.68
2019-03-10T01:47:24.196Z,15.58
2019-03-10T01:49:52.762Z,11.28
2019-03-10T01:52:21.779Z,13.53
2019-03-10T01:54:53.958Z,11.05
2019-03-10T01:57:23.068Z,7.45
2019-03-10T01:59:52.030Z,17.23
2019-03-10T02:02:25.523Z,18.57
2019-03-10T02:04:54.738Z,12.05
2019-03-10T02:07:23.503Z,16.27
2019-03-10T02:09:53.647Z,12.30
2019-03-10T02:12:22.251Z,13.32
2019-03-10T02:14:50.943Z,16.07
2019-03-10T02:17:21.547Z,17.90
2019-03-10T02:19:55.144Z,14.78
2019-03-10T02:22:23.734Z,13.08
2019-03-10T02:24:53.101Z,15.80
2019-03-10T02:27:23.717Z,15.30
2019-03-10T02:29:53.823Z,12.85
2019-03-10T02:32:24.467Z,14.98
2019-03-10T02:34:55.430Z,14.40
2019-03-10T02:37:23.524Z,13.13
2019-03-10T02:39:52.253Z,15.23
2019-03-10T02:42:21.064Z,19.12
2019-03-10T02:44:51.109Z,11.73
2019-03-10T02:47:20.999Z,11.00
2019-03-10T02:49:50.282Z,8.28
2019-03-10T02:52:19.158Z,14.58
2019-03-10T02:54:49.793Z,14.63
2019-03-10T02:57:18.391Z,14.53
2019-03-10T02:59:50.114Z,17.92
2019-03-10T03:02:18.691Z,15.50
2019-03-10T03:04:47.445Z,16.12
2019-03-10T03:07:16.386Z,9.68
2019-03-10T03:09:44.974Z,14.38
2019-03-10T03:12:13.915Z,14.78
2019-03-10T03:14:42.657Z,10.50
2019-03-10T03:17:12.991Z,14.25
2019-03-10T03:19:41.584Z,14.23
2019-03-10T03:22:10.542Z,16.52
2019-03-10T03:24:42.281Z,15.65
2019-03-10T03:27:12.491Z,12.18
2019-03-10T03:29:41.257Z,13.30
2019-03-10T03:32:09.834Z,17.32
2019-03-10T03:34:41.784Z,17.85
2019-03-10T03:37:13.855Z,14.07
2019-03-10T03:39:47.981Z,16.07
2019-03-10T03:42:16.731Z,17.55
2019-03-10T03:44:47.768Z,20.45
2019-03-10T03:47:16.518Z,18.23
2019-03-10T03:49:45.279Z,17.42
2019-03-10T03:52:14.830Z,16.60
2019-03-10T03:54:44.810Z,20.57
2019-03-10T03:57:15.405Z,22.22
2019-03-10T03:59:46.048Z,17.12
2019-03-10T04:02:49.235Z,19.65
2019-03-10T04:05:17.833Z,18.98
2019-03-10T04:07:46.610Z,17.35
2019-03-10T04:10:16.906Z,17.35
2019-03-10T04:12:45.546Z,20.68
2019-03-10T04:15:15.658Z,14.38
2019-03-10T04:17:44.419Z,17.90
2019-03-10T04:20:13.193Z,17.00
2019-03-10T04:22:41.810Z,19.65
2019-03-10T04:25:10.711Z,20.55
2019-03-10T04:27:39.916Z,17.35
2019-03-10T04:30:09.149Z,20.75
2019-03-10T04:32:38.608Z,14.43
2019-03-10T04:35:07.221Z,20.90
2019-03-10T04:37:35.821Z,16.87
2019-03-10T04:40:04.841Z,18.17
2019-03-10T04:42:33.853Z,15.93
2019-03-10T04:45:02.974Z,17.62
2019-03-10T04:47:34.161Z,20.82
2019-03-10T04:50:03.401Z,15.13
2019-03-10T04:52:31.951Z,10.03
2019-03-10T04:55:20.113Z,14.30
2019-03-10T04:58:01.176Z,12.88
2019-03-10T05:00:30.665Z,19.00
2019-03-10T05:03:01.405Z,24.10
2019-03-10T05:05:32.186Z,15.00
2019-03-10T05:08:00.765Z,17.42
2019-03-10T05:10:33.019Z,14.53
2019-03-10T05:13:01.765Z,10.75
2019-03-10T05:15:32.244Z,10.13
2019-03-10T05:18:01.199Z,11.10
2019-03-10T05:20:29.781Z,8.53
2019-03-10T05:23:31.252Z,10.58
2019-03-10T05:25:59.839Z,8.60
2019-03-10T05:28:30.797Z,7.53
2019-03-10T05:30:59.434Z,8.48
2019-03-10T05:33:30.760Z,9.18
2019-03-10T05:36:03.925Z,10.65
2019-03-10T05:38:32.478Z,12.98
2019-03-10T05:41:05.262Z,10.32
2019-03-10T05:43:35.278Z,14.27
2019-03-10T05:46:03.878Z,12.05
2019-03-10T05:48:32.435Z,15.65
2019-03-10T05:51:01.016Z,12.18
2019-03-10T05:53:29.585Z,12.93
2019-03-10T05:55:59.084Z,12.23
2019-03-10T05:58:28.048Z,16.60
2019-03-10T06:01:00.144Z,12.25
2019-03-10T06:03:28.878Z,20.12
2019-03-10T06:05:58.089Z,14.90
2019-03-10T06:08:26.841Z,18.25
2019-03-10T06:10:59.601Z,19.70
2019-03-10T06:13:28.151Z,16.73
2019-03-10T06:15:57.349Z,25.35
2019-03-10T06:18:25.909Z,19.80
2019-03-10T06:20:56.186Z,17.17
2019-03-10T06:23:24.753Z,19.48
2019-03-10T06:25:53.345Z,13.98
2019-03-10T06:28:22.119Z,18.30
2019-03-10T06:30:50.706Z,19.62
2019-03-10T06:33:23.037Z,12.05
2019-03-10T06:35:53.041Z,16.90
2019-03-10T06:38:22.169Z,15.75
2019-03-10T06:40:52.614Z,13.10
2019-03-10T06:43:22.861Z,17.00
2019-03-10T06:45:51.431Z,20.60
2019-03-10T06:48:21.492Z,16.87
2019-03-10T06:50:51.871Z,14.73
2019-03-10T06:53:20.488Z,19.37
2019-03-10T06:55:52.705Z,19.77
2019-03-10T06:58:21.477Z,20.75
2019-03-10T07:00:54.076Z,17.40
2019-03-10T07:03:22.971Z,15.18
2019-03-10T07:05:54.951Z,19.95
2019-03-10T07:08:25.252Z,23.00
2019-03-10T07:10:53.845Z,18.73
2019-03-10T07:13:24.089Z,21.68
2019-03-10T07:15:52.676Z,18.85
2019-03-10T07:18:21.574Z,22.17
2019-03-10T07:20:51.657Z,22.62
2019-03-10T07:23:22.462Z,22.02
2019-03-10T07:26:06.148Z,28.77
2019-03-10T07:28:54.153Z,24.18
2019-03-10T07:31:27.300Z,22.22
2019-03-10T07:34:08.612Z,20.55
2019-03-10T07:36:56.267Z,20.40
2019-03-10T07:39:56.199Z,21.60
2019-03-10T07:42:39.779Z,22.60
2019-03-10T07:45:18.878Z,26.57
2019-03-10T07:48:04.899Z,20.00
2019-03-10T07:50:51.491Z,19.90
2019-03-10T07:53:38.110Z,27.40
2019-03-10T07:56:26.962Z,24.47
2019-03-10T07:59:14.608Z,27.55
2019-03-10T08:01:49.455Z,23.95
2019-03-10T08:04:40.761Z,24.27
2019-03-10T08:07:26.645Z,22.20
2019-03-10T08:10:09.440Z,23.62
2019-03-10T08:12:54.024Z,21.12
2019-03-10T08:15:42.205Z,27.35
2019-03-10T08:18:28.940Z,16.75
2019-03-10T08:21:18.190Z,61.85
2019-03-10T08:23:59.529Z,22.35
2019-03-10T08:26:53.420Z,20.50
2019-03-10T08:29:36.467Z,20.25
2019-03-10T08:32:22.416Z,14.53
2019-03-10T08:34:56.634Z,11.48
2019-03-10T08:37:33.597Z,8.20
2019-03-10T08:40:18.275Z,11.70
2019-03-10T08:43:02.937Z,8.85
2019-03-10T08:46:03.499Z,8.70
2019-03-10T08:49:02.213Z,12.90
2019-03-10T08:51:46.613Z,11.22
2019-03-10T08:54:21.053Z,13.43
2019-03-10T08:57:14.779Z,9.48
2019-03-10T08:59:59.882Z,13.70
2019-03-10T09:02:43.089Z,13.75
2019-03-10T09:05:38.675Z,9.25
2019-03-10T09:08:27.068Z,10.05
2019-03-10T09:11:15.380Z,10.78
2019-03-10T09:14:03.030Z,14.03
2019-03-10T09:17:05.565Z,12.13
2019-03-10T09:19:56.508Z,10.98
2019-03-10T09:22:42.750Z,16.77
2019-03-10T09:25:46.907Z,9.68
2019-03-10T09:28:38.038Z,8.05
2019-03-10T09:31:16.787Z,10.55
2019-03-10T09:33:51.102Z,10.23
2019-03-10T09:36:37.660Z,9.05
2019-03-10T09:39:27.735Z,9.25
2019-03-10T09:42:14.104Z,7.85
2019-03-10T09:45:00.608Z,12.05
2019-03-10T09:47:51.122Z,6.25
2019-03-10T09:50:39.163Z,6.22
2019-03-10T09:53:26.358Z,10.75
2019-03-10T09:56:28.700Z,5.50
2019-03-10T09:59:19.403Z,11.88
2019-03-10T10:02:05.254Z,6.83
2019-03-10T10:04:51.458Z,5.95
2019-03-10T10:07:37.690Z,8.05
2019-03-10T10:10:24.341Z,7.28
2019-03-10T10:13:24.104Z,7.53
2019-03-10T10:16:21.893Z,7.80
2019-03-10T10:19:07.416Z,7.20
2019-03-10T10:22:09.264Z,7.22
2019-03-10T10:24:44.706Z,5.58
2019-03-10T10:27:34.781Z,4.97
2019-03-10T10:30:17.713Z,4.90
2019-03-10T10:32:55.408Z,8.23
2019-03-10T10:35:49.313Z,4.10
2019-03-10T10:38:39.736Z,5.70
2019-03-10T10:41:25.190Z,10.48
2019-03-10T10:44:11.709Z,8.90
2019-03-10T10:47:01.080Z,7.17
2019-03-10T10:49:58.712Z,4.15
2019-03-10T10:52:47.191Z,3.47
2019-03-10T10:55:32.755Z,3.70
2019-03-10T10:58:12.600Z,4.87
2019-03-10T11:00:57.185Z,1.72
2019-03-10T11:03:45.029Z,3.08
2019-03-10T11:06:49.653Z,5.90
2019-03-10T11:09:49.261Z,1.85
2019-03-10T11:12:29.100Z,8.83
2019-03-10T11:15:05.953Z,7.95
2019-03-10T11:17:52.662Z,1.82
2019-03-10T11:20:31.075Z,5.58
2019-03-10T11:23:17.746Z,5.12
2019-03-10T11:25:57.661Z,3.22
2019-03-10T11:28:54.747Z,5.92
2019-03-10T11:31:37.848Z,6.60
2019-03-10T11:34:43.487Z,4.30
2019-03-10T11:37:35.612Z,4.00
2019-03-10T11:40:46.083Z,7.62
2019-03-10T11:43:37.714Z,3.47
2019-03-10T11:46:26.812Z,5.15
2019-03-10T11:49:11.815Z,3.92
2019-03-10T11:51:54.695Z,3.37
2019-03-10T11:54:47.317Z,2.95
2019-03-10T11:57:41.189Z,1.40
2019-03-10T12:00:40.499Z,1.37
2019-03-10T12:03:37.200Z,1.22
2019-03-10T12:06:33.791Z,3.85
2019-03-10T12:09:33.297Z,2.12
2019-03-10T12:12:02.096Z,1.17
2019-03-10T12:14:31.267Z,1.62
2019-03-10T12:17:01.589Z,1.70
2019-03-10T12:19:30.784Z,1.40
2019-03-10T12:21:59.450Z,1.52
2019-03-10T12:24:28.009Z,1.30
2019-03-10T12:26:59.992Z,1.55
2019-03-10T12:29:32.205Z,1.80
2019-03-10T12:32:01.345Z,7.08
2019-03-10T12:34:29.897Z,4.80
2019-03-10T12:37:00.229Z,3.05
2019-03-10T12:39:29.153Z,5.90
2019-03-10T12:41:58.980Z,7.55
2019-03-10T12:44:34.425Z,1.47
2019-03-10T12:47:05.877Z,1.42
2019-03-10T12:49:34.463Z,1.30
2019-03-10T12:52:04.689Z,1.32
2019-03-10T12:54:33.276Z,1.90
2019-03-10T12:57:06.637Z,1.77
2019-03-10T12:59:35.381Z,1.85
2019-03-10T13:02:07.253Z,1.77
2019-03-10T13:04:36.174Z,2.40
2019-03-10T13:07:07.380Z,3.67
2019-03-10T13:09:36.153Z,2.17
2019-03-10T13:12:04.733Z,2.50
2019-03-10T13:14:38.236Z,2.37
2019-03-10T13:17:08.113Z,2.40
2019-03-10T13:19:37.132Z,3.45
2019-03-10T13:22:06.053Z,2.50
2019-03-10T13:24:37.943Z,2.70
2019-03-10T13:27:06.539Z,3.55
2019-03-10T13:29:35.171Z,3.00
2019-03-10T13:32:05.735Z,3.10
2019-03-10T13:34:34.756Z,3.17
2019-03-10T13:37:03.603Z,3.00
2019-03-10T13:39:35.284Z,3.75
2019-03-10T13:42:03.864Z,3.27
2019-03-10T13:44:35.607Z,2.47
2019-03-10T13:47:06.434Z,2.80
2019-03-10T13:49:35.621Z,3.42
2019-03-10T13:52:07.318Z,4.42
2019-03-10T13:54:36.270Z,2.50
2019-03-10T13:57:05.457Z,2.70
2019-03-10T13:59:37.645Z,2.72
2019-03-10T14:02:06.662Z,2.80
2019-03-10T14:04:35.288Z,3.40
2019-03-10T14:07:10.276Z,3.75
2019-03-10T14:09:39.496Z,3.58
2019-03-10T14:12:09.706Z,3.42
2019-03-10T14:14:39.299Z,3.37
2019-03-10T14:17:11.382Z,3.72
2019-03-10T14:19:40.305Z,4.87
2019-03-10T14:22:08.881Z,4.75
2019-03-10T14:24:37.928Z,4.47
2019-03-10T14:27:07.865Z,5.45
2019-03-10T14:29:36.462Z,4.92
2019-03-10T14:32:07.132Z,4.60
2019-03-10T14:34:35.978Z,6.47
2019-03-10T14:37:04.922Z,6.00
2019-03-10T14:39:35.121Z,7.67
2019-03-10T14:42:05.317Z,7.70
2019-03-10T14:44:35.029Z,7.03
2019-03-10T14:47:05.918Z,6.92
2019-03-10T14:49:34.524Z,13.62
2019-03-10T14:52:06.324Z,10.15
2019-03-10T14:54:34.928Z,7.53
2019-03-10T14:57:03.841Z,9.35
2019-03-10T14:59:32.893Z,8.78
2019-03-10T15:02:01.836Z,12.85
2019-03-10T15:04:30.449Z,14.38
2019-03-10T15:06:59.003Z,7.62
2019-03-10T15:09:27.561Z,9.98
2019-03-10T15:11:56.460Z,8.20
2019-03-10T15:14:25.625Z,5.62
2019-03-10T15:17:01.568Z,8.28
2019-03-10T15:19:24.579Z,9.38
2019-03-10T15:22:14.394Z,11.65
2019-03-10T15:24:42.984Z,8.78
2019-03-10T15:27:11.539Z,6.70
2019-03-10T15:29:40.515Z,7.75
2019-03-10T15:32:11.457Z,11.03
2019-03-10T15:34:42.046Z,8.30
2019-03-10T15:37:12.553Z,8.40
2019-03-10T15:39:42.031Z,9.33
2019-03-10T15:42:14.016Z,10.95
2019-03-10T15:44:42.753Z,9.10
2019-03-10T15:47:11.503Z,7.30
2019-03-10T15:49:43.446Z,6.72
2019-03-10T15:52:12.099Z,12.25
2019-03-10T15:54:44.317Z,6.20
2019-03-10T15:57:16.288Z,5.22
2019-03-10T15:59:46.318Z,4.65
2019-03-10T16:02:17.195Z,4.35
2019-03-10T16:04:45.946Z,5.75
2019-03-10T16:07:15.846Z,4.20
2019-03-10T16:09:44.851Z,5.17
2019-03-10T16:12:14.174Z,4.10
2019-03-10T16:14:42.829Z,5.42
2019-03-10T16:17:11.785Z,12.25
2019-03-10T16:19:45.641Z,5.12
2019-03-10T16:22:14.278Z,5.95
2019-03-10T16:24:46.455Z,9.68
2019-03-10T16:27:23.408Z,7.05
2019-03-10T16:29:52.426Z,10.72
2019-03-10T16:32:22.013Z,6.30
2019-03-10T16:34:52.303Z,6.05
2019-03-10T16:37:21.612Z,10.03
2019-03-10T16:39:50.546Z,6.85
2019-03-10T16:42:20.739Z,6.65
2019-03-10T16:44:51.263Z,7.45
2019-03-10T16:47:19.925Z,9.35
2019-03-10T16:49:50.220Z,5.37
2019-03-10T16:52:20.421Z,8.43
2019-03-10T16:54:49.846Z,5.55
2019-03-10T16:57:18.471Z,5.72
2019-03-10T16:59:52.283Z,6.17
2019-03-10T17:02:21.289Z,4.25
2019-03-10T17:04:53.339Z,3.10
2019-03-10T17:07:22.320Z,3.77
2019-03-10T17:09:51.549Z,5.37
2019-03-10T17:12:22.025Z,4.62
2019-03-10T17:14:50.740Z,3.72
2019-03-10T17:17:20.119Z,5.03
2019-03-10T17:19:54.837Z,2.42
2019-03-10T17:22:23.431Z,1.22
2019-03-10T17:24:54.357Z,2.17
2019-03-10T17:27:23.121Z,4.92
2019-03-10T17:29:55.440Z,2.33
2019-03-10T17:32:26.110Z,1.55
2019-03-10T17:34:55.135Z,1.87
2019-03-10T17:37:24.665Z,5.22
2019-03-10T17:39:53.731Z,18.77
2019-03-10T17:42:24.035Z,11.08
2019-03-10T17:44:52.740Z,19.50
2019-03-10T17:47:26.724Z,15.83
2019-03-10T17:49:53.388Z,2.20
2019-03-10T17:52:22.187Z,1.17
2019-03-10T17:54:56.487Z,0.82
2019-03-10T17:57:25.486Z,1.00
2019-03-10T17:59:54.370Z,1.20
2019-03-10T18:02:29.031Z,1.25
2019-03-10T18:04:58.055Z,1.10
2019-03-10T18:07:28.810Z,1.80
2019-03-10T18:09:58.152Z,3.80
2019-03-10T18:12:26.834Z,1.30
2019-03-10T18:14:55.407Z,2.60
2019-03-10T18:17:24.582Z,1.10
2019-03-10T18:19:55.260Z,0.90
2019-03-10T18:22:23.841Z,1.10
2019-03-10T18:24:52.918Z,0.93
2019-03-10T18:27:24.513Z,3.40
2019-03-10T18:29:53.101Z,1.92
2019-03-10T18:32:25.156Z,1.55
2019-03-10T18:34:55.795Z,1.00
2019-03-10T18:37:25.951Z,1.10
2019-03-10T18:39:57.906Z,1.12
2019-03-10T18:42:27.275Z,1.02
2019-03-10T18:44:58.024Z,1.00
2019-03-10T18:47:26.661Z,1.15
2019-03-10T18:49:58.763Z,0.93
2019-03-10T18:52:33.237Z,1.00
2019-03-10T18:55:03.989Z,1.22
2019-03-10T18:57:35.036Z,2.83
2019-03-10T19:00:05.867Z,1.00
2019-03-10T19:02:36.670Z,1.85
2019-03-10T19:05:07.023Z,2.70
2019-03-10T19:07:37.570Z,1.90
2019-03-10T19:10:09.685Z,2.22
2019-03-10T19:12:39.721Z,1.77
2019-03-10T19:15:10.954Z,2.17
2019-03-10T19:17:39.695Z,4.85
2019-03-10T19:20:09.157Z,2.40
2019-03-10T19:22:39.430Z,1.90
2019-03-10T19:25:12.947Z,3.72
2019-03-10T19:30:19.200Z,1.90
2019-03-10T19:32:48.525Z,2.50
2019-03-10T19:35:17.188Z,3.10
2019-03-10T19:37:46.085Z,3.00
2019-03-10T19:40:14.736Z,3.10
2019-03-10T19:42:44.987Z,2.62
2019-03-10T19:45:14.602Z,2.90
2019-03-10T19:47:48.301Z,2.25
2019-03-10T19:50:16.957Z,2.62
2019-03-10T19:52:47.278Z,2.30
2019-03-10T19:55:16.393Z,1.92
2019-03-10T19:57:45.414Z,1.70
2019-03-10T20:00:17.122Z,1.50
2019-03-10T20:02:50.124Z,1.57
2019-03-10T20:05:21.371Z,1.70
2019-03-10T20:07:52.360Z,1.80
2019-03-10T20:10:20.986Z,1.92
2019-03-10T20:12:50.486Z,1.45
2019-03-10T20:15:19.919Z,1.90
2019-03-10T20:17:52.094Z,1.70
2019-03-10T20:20:21.069Z,1.70
2019-03-10T20:22:53.749Z,2.20
2019-03-10T20:25:22.381Z,2.00
2019-03-10T20:27:51.420Z,2.47
2019-03-10T20:30:21.555Z,2.08
2019-03-10T20:32:50.142Z,2.10
2019-03-10T20:35:19.775Z,3.40
2019-03-10T20:37:48.425Z,2.67
2019-03-10T20:40:20.481Z,2.33
2019-03-10T20:42:51.042Z,2.25
2019-03-10T20:45:24.943Z,2.17
2019-03-10T20:48:02.096Z,2.60
2019-03-10T20:50:30.723Z,2.52
2019-03-10T20:52:59.870Z,2.85
2019-03-10T20:55:30.001Z,2.72
2019-03-10T20:58:00.327Z,2.22
2019-03-10T21:00:28.955Z,1.92
2019-03-10T21:03:01.215Z,2.17
2019-03-10T21:05:35.269Z,1.77
2019-03-10T21:08:04.287Z,1.65
2019-03-10T21:10:36.237Z,1.70
2019-03-10T21:13:06.527Z,2.12
2019-03-10T21:15:38.744Z,1.50
2019-03-10T21:18:07.362Z,2.35
2019-03-10T21:20:36.126Z,1.57
2019-03-10T21:23:04.888Z,2.40
2019-03-10T21:25:33.937Z,1.87
2019-03-10T21:28:02.871Z,2.00
2019-03-10T21:30:34.687Z,2.02
2019-03-10T21:33:06.765Z,1.45
2019-03-10T21:35:35.785Z,2.33
2019-03-10T21:38:06.445Z,1.50
2019-03-10T21:40:38.319Z,2.20
2019-03-10T21:43:07.665Z,3.35
2019-03-10T21:45:40.001Z,4.62
2019-03-10T21:48:08.771Z,12.53
2019-03-10T21:50:41.133Z,5.17
2019-03-10T21:53:10.595Z,5.50
2019-03-10T21:55:40.273Z,3.10
2019-03-10T21:58:13.728Z,3.98
2019-03-10T22:03:10.893Z,3.12
2019-03-10T22:05:40.974Z,3.80
2019-03-10T22:08:09.562Z,3.67
2019-03-10T22:10:40.081Z,4.17
2019-03-10T22:13:10.351Z,6.05
2019-03-10T22:15:41.918Z,6.20
2019-03-10T22:18:10.199Z,4.83
2019-03-10T22:20:41.267Z,7.15
2019-03-10T22:23:11.200Z,5.10
2019-03-10T22:25:40.232Z,5.33
2019-03-10T22:28:12.208Z,4.80
2019-03-10T22:30:41.236Z,6.30
2019-03-10T22:33:10.587Z,9.60
2019-03-10T22:35:39.183Z,9.73
2019-03-10T22:38:08.166Z,6.60
2019-03-10T22:40:38.063Z,8.08
2019-03-10T22:43:06.616Z,8.05
2019-03-10T22:45:39.098Z,6.12
2019-03-10T22:48:09.678Z,5.40
2019-03-10T22:50:38.658Z,6.03
2019-03-10T22:53:09.186Z,6.20
2019-03-10T22:55:38.080Z,5.72
2019-03-10T22:58:07.696Z,5.45
2019-03-10T23:00:47.449Z,6.85
2019-03-10T23:03:16.323Z,5.42
2019-03-10T23:05:46.927Z,4.67
2019-03-10T23:08:20.682Z,4.80
2019-03-10T23:10:52.542Z,4.67
2019-03-10T23:13:23.170Z,6.40
2019-03-10T23:15:53.658Z,7.17
2019-03-10T23:18:23.011Z,6.67
2019-03-10T23:20:53.577Z,4.33
2019-03-10T23:23:23.512Z,3.95
2019-03-10T23:25:52.471Z,5.40
2019-03-10T23:28:21.956Z,7.83
2019-03-10T23:30:50.922Z,5.95
2019-03-10T23:33:19.837Z,7.03
2019-03-10T23:35:50.565Z,3.87
2019-03-10T23:38:19.307Z,3.20
2019-03-10T23:40:47.897Z,4.65
2019-03-10T23:43:16.831Z,5.85
2019-03-10T23:45:45.403Z,4.15
2019-03-10T23:48:14.381Z,4.90
2019-03-10T23:50:46.028Z,5.92
2019-03-10T23:53:14.639Z,5.50
2019-03-10T23:55:43.232Z,5.35
2019-03-10T23:58:12.426Z,3.80
